createdAt,value
2018-12-19T00:00:08.004Z,85.65
2018-12-19T00:05:10.389Z,85.76
2018-12-19T00:10:13.238Z,85.05
2018-12-19T00:15:15.546Z,85.27
2018-12-19T00:20:18.291Z,85.71
2018-12-19T00:25:21.433Z,85.62
2018-12-19T00:30:24.108Z,85.58
2018-12-19T00:35:26.865Z,85.63
2018-12-19T00:40:29.528Z,86.05
2018-12-19T00:45:31.987Z,85.63
2018-12-19T00:50:34.664Z,85.56
2018-12-19T00:55:37.050Z,85.28
2018-12-19T01:00:39.642Z,85.27
2018-12-19T01:05:42.298Z,84.83
2018-12-19T01:10:44.952Z,85.28
2018-12-19T01:15:47.591Z,85.08
2018-12-19T01:20:49.930Z,84.99
2018-12-19T01:25:52.579Z,85.14
2018-12-19T01:30:55.046Z,84.66
2018-12-19T01:35:57.509Z,84.69
2018-12-19T01:41:00.867Z,84.78
2018-12-19T01:46:03.728Z,84.12
2018-12-19T01:51:06.226Z,84.32
2018-12-19T01:56:08.758Z,84.30
2018-12-19T02:01:11.124Z,84.00
2018-12-19T02:06:14.567Z,84.20
2018-12-19T02:11:17.050Z,84.41
2018-12-19T02:16:19.900Z,83.63
2018-12-19T02:21:22.295Z,83.46
2018-12-19T02:26:25.152Z,83.81
2018-12-19T02:31:27.562Z,83.84
2018-12-19T02:36:30.290Z,83.62
2018-12-19T02:41:32.819Z,83.88
2018-12-19T02:46:35.930Z,83.83
2018-12-19T02:51:38.344Z,83.62
2018-12-19T02:56:40.863Z,83.11
2018-12-19T03:01:43.197Z,84.00
2018-12-19T03:06:45.553Z,83.66
2018-12-19T03:11:48.378Z,83.62
2018-12-19T03:16:50.795Z,83.78
2018-12-19T03:21:53.378Z,83.49
2018-12-19T03:26:55.671Z,83.03
2018-12-19T03:31:58.553Z,83.22
2018-12-19T03:37:00.877Z,83.31
2018-12-19T03:42:03.337Z,83.30
2018-12-19T03:47:05.670Z,83.01
2018-12-19T03:52:08.677Z,83.65
2018-12-19T03:57:11.428Z,83.63
2018-12-19T04:02:13.969Z,83.47
2018-12-19T04:07:16.384Z,83.43
2018-12-19T04:12:18.962Z,83.29
2018-12-19T04:17:21.299Z,83.26
2018-12-19T04:22:26.297Z,83.70
2018-12-19T04:27:28.785Z,83.12
2018-12-19T04:32:34.238Z,82.92
2018-12-19T04:37:36.520Z,83.70
2018-12-19T04:42:39.105Z,83.75
2018-12-19T04:47:41.792Z,83.10
2018-12-19T04:52:44.367Z,83.33
2018-12-19T04:57:46.711Z,83.52
2018-12-19T05:02:49.407Z,83.31
2018-12-19T05:07:53.511Z,83.08
2018-12-19T05:12:55.833Z,83.10
2018-12-19T05:17:58.129Z,82.67
2018-12-19T05:23:00.573Z,82.56
2018-12-19T05:28:02.880Z,82.90
2018-12-19T05:33:05.665Z,82.89
2018-12-19T05:38:08.145Z,84.08
2018-12-19T05:43:10.676Z,85.46
2018-12-19T05:48:13.411Z,85.85
2018-12-19T05:53:15.991Z,87.35
2018-12-19T05:58:18.534Z,87.07
2018-12-19T06:03:20.944Z,88.21
2018-12-19T06:08:23.571Z,88.30
2018-12-19T06:13:25.926Z,88.13
2018-12-19T06:18:28.536Z,88.42
2018-12-19T06:23:31.201Z,89.17
2018-12-19T06:28:33.738Z,88.67
2018-12-19T06:33:36.876Z,89.89
2018-12-19T06:38:39.542Z,89.34
2018-12-19T06:43:43.004Z,88.73
2018-12-19T06:48:45.589Z,90.03
2018-12-19T06:53:48.079Z,89.33
2018-12-19T06:58:50.426Z,89.72
2018-12-19T07:03:53.422Z,89.21
2018-12-19T07:08:55.897Z,89.55
2018-12-19T07:13:58.454Z,88.34
2018-12-19T07:19:00.826Z,87.86
2018-12-19T07:24:03.370Z,86.80
2018-12-19T07:29:05.719Z,87.33
2018-12-19T07:34:08.213Z,88.76
2018-12-19T07:39:10.675Z,89.40
2018-12-19T07:44:13.042Z,89.24
2018-12-19T07:49:15.419Z,88.14
2018-12-19T07:54:17.876Z,88.39
2018-12-19T07:59:20.461Z,89.40
2018-12-19T08:04:23.195Z,87.80
2018-12-19T08:09:25.510Z,88.75
2018-12-19T08:14:27.861Z,87.34
2018-12-19T08:19:30.163Z,86.90
2018-12-19T08:24:32.567Z,87.76
2018-12-19T08:29:34.928Z,87.70
2018-12-19T08:34:37.300Z,87.86
2018-12-19T08:39:39.920Z,87.73
2018-12-19T08:44:42.688Z,87.08
2018-12-19T08:49:45.418Z,87.32
2018-12-19T08:54:47.707Z,87.23
2018-12-19T08:59:50.543Z,87.13
2018-12-19T09:04:52.931Z,88.04
2018-12-19T09:09:55.702Z,88.70
2018-12-19T09:14:58.310Z,87.79
2018-12-19T09:20:01.376Z,88.14
2018-12-19T09:25:03.950Z,88.61
2018-12-19T09:30:07.633Z,88.87
2018-12-19T09:35:10.492Z,88.36
2018-12-19T09:40:13.228Z,87.18
2018-12-19T09:45:15.885Z,86.80
2018-12-19T09:50:18.513Z,84.72
2018-12-19T09:55:20.953Z,85.92
2018-12-19T10:00:26.893Z,84.99
2018-12-19T10:05:29.552Z,84.34
2018-12-19T10:10:32.021Z,84.16
2018-12-19T10:15:34.773Z,85.80
2018-12-19T10:20:37.649Z,86.91
2018-12-19T10:25:40.305Z,87.13
2018-12-19T10:30:47.170Z,88.01
2018-12-19T10:35:50.219Z,87.98
2018-12-19T10:40:53.529Z,87.46
2018-12-19T10:45:56.747Z,87.49
2018-12-19T10:50:59.225Z,87.44
2018-12-19T10:56:02.915Z,87.37
2018-12-19T11:01:05.815Z,86.61
2018-12-19T11:06:08.925Z,85.75
2018-12-19T11:11:11.643Z,86.26
2018-12-19T11:16:14.448Z,85.16
2018-12-19T11:21:16.933Z,84.89
2018-12-19T11:26:19.429Z,85.45
2018-12-19T11:31:21.832Z,85.31
2018-12-19T11:36:24.527Z,85.47
2018-12-19T11:41:27.743Z,85.31
2018-12-19T11:46:31.735Z,84.51
2018-12-19T11:51:34.363Z,85.31
2018-12-19T11:56:36.955Z,84.87
2018-12-19T12:01:41.532Z,85.68
2018-12-19T12:06:44.220Z,84.57
2018-12-19T12:11:46.613Z,85.05
2018-12-19T12:16:49.048Z,85.51
2018-12-19T12:21:51.595Z,85.98
2018-12-19T12:26:54.096Z,85.44
2018-12-19T12:31:56.817Z,86.45
2018-12-19T12:36:59.721Z,85.52
2018-12-19T12:42:02.348Z,86.32
2018-12-19T12:47:04.778Z,86.68
2018-12-19T12:52:07.481Z,86.43
2018-12-19T12:57:10.143Z,86.06
2018-12-19T13:02:13.134Z,85.84
2018-12-19T13:07:15.676Z,86.19
2018-12-19T13:12:18.282Z,85.64
2018-12-19T13:17:20.947Z,85.39
2018-12-19T13:22:24.027Z,84.71
2018-12-19T13:27:33.021Z,84.84
2018-12-19T13:32:35.563Z,83.94
2018-12-19T13:37:37.959Z,84.24
2018-12-19T13:42:40.454Z,84.04
2018-12-19T13:47:42.942Z,84.20
2018-12-19T13:52:45.678Z,84.94
2018-12-19T13:57:48.059Z,84.46
2018-12-19T14:02:50.646Z,85.19
2018-12-19T14:07:53.153Z,85.50
2018-12-19T14:12:56.125Z,85.40
2018-12-19T14:17:59.230Z,85.82
2018-12-19T14:23:02.734Z,85.73
2018-12-19T14:28:05.268Z,85.92
2018-12-19T14:33:08.339Z,86.37
2018-12-19T14:38:11.641Z,86.32
2018-12-19T14:43:14.158Z,86.51
2018-12-19T14:48:16.494Z,86.98
2018-12-19T14:53:19.223Z,86.92
2018-12-19T14:58:22.582Z,87.34
2018-12-19T15:03:25.078Z,87.04
2018-12-19T15:08:27.515Z,87.45
2018-12-19T15:13:30.222Z,87.84
2018-12-19T15:18:32.565Z,87.99
2018-12-19T15:23:34.983Z,87.69
2018-12-19T15:28:37.376Z,88.34
2018-12-19T15:33:39.767Z,88.00
2018-12-19T15:38:42.174Z,88.05
2018-12-19T15:43:44.755Z,87.79
2018-12-19T15:48:47.226Z,88.27
2018-12-19T15:53:50.433Z,87.61
2018-12-19T15:58:53.040Z,87.25
2018-12-19T16:03:55.415Z,87.77
2018-12-19T16:08:57.798Z,88.11
2018-12-19T16:14:00.491Z,87.93
2018-12-19T16:19:03.116Z,88.34
2018-12-19T16:24:05.418Z,88.47
2018-12-19T16:29:07.994Z,88.00
2018-12-19T16:34:10.584Z,87.94
2018-12-19T16:39:12.959Z,88.08
2018-12-19T16:44:15.433Z,87.94
2018-12-19T16:49:18.243Z,87.62
2018-12-19T16:54:20.791Z,88.52
2018-12-19T16:59:23.215Z,88.42
2018-12-19T17:04:25.563Z,88.33
2018-12-19T17:09:27.996Z,89.01
2018-12-19T17:14:30.397Z,89.09
2018-12-19T17:19:33.095Z,90.19
2018-12-19T17:24:39.885Z,89.99
2018-12-19T17:29:42.308Z,89.93
2018-12-19T17:34:44.653Z,90.27
2018-12-19T17:39:46.976Z,90.96
2018-12-19T17:44:49.397Z,91.12
2018-12-19T17:49:52.446Z,91.78
2018-12-19T17:54:54.970Z,91.67
2018-12-19T17:59:57.337Z,91.07
2018-12-19T18:04:59.814Z,91.06
2018-12-19T18:10:02.194Z,90.26
2018-12-19T18:15:04.589Z,89.94
2018-12-19T18:20:07.539Z,89.84
2018-12-19T18:25:10.277Z,89.70
2018-12-19T18:30:12.875Z,89.83
2018-12-19T18:35:15.360Z,89.75
2018-12-19T18:40:17.778Z,89.14
2018-12-19T18:45:21.066Z,89.17
2018-12-19T18:50:23.522Z,89.15
2018-12-19T18:55:26.121Z,88.77
2018-12-19T19:00:33.577Z,89.22
2018-12-19T19:05:36.978Z,89.16
2018-12-19T19:10:39.683Z,89.07
2018-12-19T19:15:44.183Z,89.25
2018-12-19T19:20:46.764Z,89.07
2018-12-19T19:25:49.159Z,89.27
2018-12-19T19:30:51.684Z,88.94
2018-12-19T19:35:54.320Z,89.19
2018-12-19T19:40:56.862Z,88.83
2018-12-19T19:45:59.424Z,89.19
2018-12-19T19:51:01.921Z,88.83
2018-12-19T19:56:04.466Z,89.14
2018-12-19T20:01:07.023Z,89.37
2018-12-19T20:06:09.521Z,89.39
2018-12-19T20:11:13.014Z,89.16
2018-12-19T20:16:15.424Z,89.33
2018-12-19T20:21:17.862Z,89.27
2018-12-19T20:26:20.275Z,89.30
2018-12-19T20:31:22.701Z,89.39
2018-12-19T20:36:25.093Z,89.19
2018-12-19T20:41:27.686Z,88.83
2018-12-19T20:46:30.042Z,89.57
2018-12-19T20:51:32.566Z,89.80
2018-12-19T20:56:35.161Z,90.02
2018-12-19T21:01:38.373Z,89.59
2018-12-19T21:06:40.795Z,89.73
2018-12-19T21:11:43.631Z,89.90
2018-12-19T21:16:51.792Z,90.21
2018-12-19T21:21:54.417Z,90.39
2018-12-19T21:26:56.985Z,90.49
2018-12-19T21:31:59.366Z,90.23
2018-12-19T21:37:02.193Z,90.34
2018-12-19T21:42:04.832Z,90.66
2018-12-19T21:47:07.296Z,91.03
2018-12-19T21:52:10.026Z,91.05
2018-12-19T21:57:12.387Z,91.20
2018-12-19T22:02:14.987Z,90.55
2018-12-19T22:07:17.552Z,90.77
2018-12-19T22:12:19.998Z,91.35
2018-12-19T22:17:28.298Z,91.30
2018-12-19T22:22:30.819Z,90.72
2018-12-19T22:27:33.628Z,90.67
2018-12-19T22:32:36.013Z,90.93
2018-12-19T22:37:39.046Z,91.06
2018-12-19T22:42:41.500Z,91.01
2018-12-19T22:47:44.035Z,90.87
2018-12-19T22:52:46.914Z,90.88
2018-12-19T22:57:49.285Z,90.99
2018-12-19T23:02:57.533Z,90.66
2018-12-19T23:08:00.146Z,90.79
2018-12-19T23:13:03.086Z,91.03
2018-12-19T23:18:11.279Z,90.69
2018-12-19T23:23:13.835Z,90.86
2018-12-19T23:28:16.423Z,90.78
2018-12-19T23:33:18.838Z,90.92
2018-12-19T23:38:21.345Z,90.99
2018-12-19T23:43:23.697Z,91.18
2018-12-19T23:48:26.035Z,91.33
2018-12-19T23:53:28.608Z,92.01
2018-12-19T23:58:31.073Z,92.60
